sensor_id;sensor_type;location;lat;lon;timestamp;temperature;humidity
21298;DHT22;10808;48.010;11.326;2022-11-20T00:01:11;6.50;99.90
21298;DHT22;10808;48.010;11.326;2022-11-20T00:03:38;6.50;99.90
21298;DHT22;10808;48.010;11.326;2022-11-20T00:06:06;6.50;99.90
21298;DHT22;10808;48.010;11.326;2022-11-20T00:08:33;6.50;99.90
21298;DHT22;10808;48.010;11.326;2022-11-20T00:11:06;6.60;99.90
21298;DHT22;10808;48.010;11.326;2022-11-20T00:13:33;6.50;99.90
21298;DHT22;10808;48.010;11.326;2022-11-20T00:16:01;6.50;99.90
21298;DHT22;10808;48.010;11.326;2022-11-20T00:18:27;6.50;99.90
21298;DHT22;10808;48.010;11.326;2022-11-20T00:20:59;6.50;99.90
21298;DHT22;10808;48.010;11.326;2022-11-20T00:23:26;6.50;99.90
21298;DHT22;10808;48.010;11.326;2022-11-20T00:25:52;6.50;99.90
21298;DHT22;10808;48.010;11.326;2022-11-20T00:28:18;6.50;99.90
21298;DHT22;10808;48.010;11.326;2022-11-20T00:30:44;6.50;99.90
21298;DHT22;10808;48.010;11.326;2022-11-20T00:33:10;6.50;99.90
21298;DHT22;10808;48.010;11.326;2022-11-20T00:35:36;6.50;99.90
21298;DHT22;10808;48.010;11.326;2022-11-20T00:38:02;6.50;99.90
21298;DHT22;10808;48.010;11.326;2022-11-20T00:40:29;6.50;99.90
21298;DHT22;10808;48.010;11.326;2022-11-20T00:42:55;6.50;99.90
21298;DHT22;10808;48.010;11.326;2022-11-20T00:45:21;6.50;99.90
21298;DHT22;10808;48.010;11.326;2022-11-20T00:47:47;6.50;99.90
21298;DHT22;10808;48.010;11.326;2022-11-20T00:50:13;6.50;99.90
21298;DHT22;10808;48.010;11.326;2022-11-20T00:52:40;6.50;99.90
21298;DHT22;10808;48.010;11.326;2022-11-20T00:55:06;6.50;99.90
21298;DHT22;10808;48.010;11.326;2022-11-20T00:57:32;6.60;99.90
21298;DHT22;10808;48.010;11.326;2022-11-20T00:59:58;6.60;99.90
21298;DHT22;10808;48.010;11.326;2022-11-20T01:02:24;6.60;99.90
21298;DHT22;10808;48.010;11.326;2022-11-20T01:04:50;6.70;99.90
21298;DHT22;10808;48.010;11.326;2022-11-20T01:07:16;6.70;99.90
21298;DHT22;10808;48.010;11.326;2022-11-20T01:09:42;6.80;99.90
21298;DHT22;10808;48.010;11.326;2022-11-20T01:12:08;6.70;99.90
21298;DHT22;10808;48.010;11.326;2022-11-20T01:14:35;6.70;99.90
21298;DHT22;10808;48.010;11.326;2022-11-20T01:17:01;6.70;99.90
21298;DHT22;10808;48.010;11.326;2022-11-20T01:19:27;6.80;99.90
21298;DHT22;10808;48.010;11.326;2022-11-20T01:21:54;6.70;99.90
21298;DHT22;10808;48.010;11.326;2022-11-20T01:24:21;6.70;99.90
21298;DHT22;10808;48.010;11.326;2022-11-20T01:26:50;6.70;99.90
21298;DHT22;10808;48.010;11.326;2022-11-20T01:29:24;6.70;99.90
21298;DHT22;10808;48.010;11.326;2022-11-20T01:31:51;6.70;99.90
21298;DHT22;10808;48.010;11.326;2022-11-20T01:34:19;6.70;99.90
21298;DHT22;10808;48.010;11.326;2022-11-20T01:36:47;6.70;99.90
21298;DHT22;10808;48.010;11.326;2022-11-20T01:39:24;6.60;99.90
21298;DHT22;10808;48.010;11.326;2022-11-20T01:41:51;6.60;99.90
21298;DHT22;10808;48.010;11.326;2022-11-20T01:44:57;6.60;99.90
21298;DHT22;10808;48.010;11.326;2022-11-20T01:47:40;6.60;99.90
21298;DHT22;10808;48.010;11.326;2022-11-20T01:50:21;6.60;99.90
21298;DHT22;10808;48.010;11.326;2022-11-20T01:52:56;6.60;99.90
21298;DHT22;10808;48.010;11.326;2022-11-20T01:55:29;6.60;99.90
21298;DHT22;10808;48.010;11.326;2022-11-20T01:57:57;6.60;99.90
21298;DHT22;10808;48.010;11.326;2022-11-20T02:00:24;6.50;99.90
21298;DHT22;10808;48.010;11.326;2022-11-20T02:02:56;6.50;99.90
21298;DHT22;10808;48.010;11.326;2022-11-20T02:08:12;6.50;99.90
21298;DHT22;10808;48.010;11.326;2022-11-20T02:10:38;6.40;99.90
21298;DHT22;10808;48.010;11.326;2022-11-20T02:13:05;6.40;99.90
21298;DHT22;10808;48.010;11.326;2022-11-20T02:15:50;6.40;99.90
21298;DHT22;10808;48.010;11.326;2022-11-20T02:18:19;6.40;99.90
21298;DHT22;10808;48.010;11.326;2022-11-20T02:20:48;6.40;99.90
21298;DHT22;10808;48.010;11.326;2022-11-20T02:23:31;6.40;99.90
21298;DHT22;10808;48.010;11.326;2022-11-20T02:26:02;6.30;99.90
21298;DHT22;10808;48.010;11.326;2022-11-20T02:28:30;6.30;99.90
21298;DHT22;10808;48.010;11.326;2022-11-20T02:30:56;6.30;99.90
21298;DHT22;10808;48.010;11.326;2022-11-20T02:33:22;6.30;99.90
21298;DHT22;10808;48.010;11.326;2022-11-20T02:35:48;6.20;99.90
21298;DHT22;10808;48.010;11.326;2022-11-20T02:38:15;6.30;99.90
21298;DHT22;10808;48.010;11.326;2022-11-20T02:40:41;6.20;99.90
21298;DHT22;10808;48.010;11.326;2022-11-20T02:43:08;6.20;99.90
21298;DHT22;10808;48.010;11.326;2022-11-20T02:45:34;6.30;99.90
21298;DHT22;10808;48.010;11.326;2022-11-20T02:48:00;6.20;99.90
21298;DHT22;10808;48.010;11.326;2022-11-20T02:50:26;6.20;99.90
21298;DHT22;10808;48.010;11.326;2022-11-20T02:52:53;6.20;99.90
21298;DHT22;10808;48.010;11.326;2022-11-20T02:55:19;6.20;99.90
21298;DHT22;10808;48.010;11.326;2022-11-20T02:57:45;6.20;99.90
21298;DHT22;10808;48.010;11.326;2022-11-20T03:00:11;6.20;99.90
21298;DHT22;10808;48.010;11.326;2022-11-20T03:02:44;6.20;99.90
21298;DHT22;10808;48.010;11.326;2022-11-20T03:05:11;6.20;99.90
21298;DHT22;10808;48.010;11.326;2022-11-20T03:07:37;6.20;99.90
21298;DHT22;10808;48.010;11.326;2022-11-20T03:10:04;6.20;99.90
21298;DHT22;10808;48.010;11.326;2022-11-20T03:12:30;6.10;99.90
21298;DHT22;10808;48.010;11.326;2022-11-20T03:14:56;6.20;99.90
21298;DHT22;10808;48.010;11.326;2022-11-20T03:17:22;6.20;99.90
21298;DHT22;10808;48.010;11.326;2022-11-20T03:19:50;6.20;99.90
21298;DHT22;10808;48.010;11.326;2022-11-20T03:22:16;6.20;99.90
21298;DHT22;10808;48.010;11.326;2022-11-20T03:24:43;6.20;99.90
21298;DHT22;10808;48.010;11.326;2022-11-20T03:27:09;6.20;99.90
21298;DHT22;10808;48.010;11.326;2022-11-20T03:29:35;6.20;99.90
21298;DHT22;10808;48.010;11.326;2022-11-20T03:32:01;6.20;99.90
21298;DHT22;10808;48.010;11.326;2022-11-20T03:34:28;6.20;99.90
21298;DHT22;10808;48.010;11.326;2022-11-20T03:36:54;6.30;99.90
21298;DHT22;10808;48.010;11.326;2022-11-20T03:39:20;6.30;99.90
21298;DHT22;10808;48.010;11.326;2022-11-20T03:41:46;6.20;99.90
21298;DHT22;10808;48.010;11.326;2022-11-20T03:44:12;6.30;99.90
21298;DHT22;10808;48.010;11.326;2022-11-20T03:46:39;6.30;99.90
21298;DHT22;10808;48.010;11.326;2022-11-20T03:49:05;6.30;99.90
21298;DHT22;10808;48.010;11.326;2022-11-20T03:51:34;6.30;99.90
21298;DHT22;10808;48.010;11.326;2022-11-20T03:54:06;6.30;99.90
21298;DHT22;10808;48.010;11.326;2022-11-20T03:56:34;6.30;99.90
21298;DHT22;10808;48.010;11.326;2022-11-20T03:59:00;6.30;99.90
21298;DHT22;10808;48.010;11.326;2022-11-20T04:01:32;6.40;99.90
21298;DHT22;10808;48.010;11.326;2022-11-20T04:03:58;6.40;99.90
21298;DHT22;10808;48.010;11.326;2022-11-20T04:06:30;6.40;99.90
21298;DHT22;10808;48.010;11.326;2022-11-20T04:08:57;6.40;99.90
21298;DHT22;10808;48.010;11.326;2022-11-20T04:11:27;6.30;99.90
21298;DHT22;10808;48.010;11.326;2022-11-20T04:13:55;6.40;99.90
21298;DHT22;10808;48.010;11.326;2022-11-20T04:16:23;6.40;99.90
21298;DHT22;10808;48.010;11.326;2022-11-20T04:18:57;6.30;99.90
21298;DHT22;10808;48.010;11.326;2022-11-20T04:21:24;6.30;99.90
21298;DHT22;10808;48.010;11.326;2022-11-20T04:23:52;6.30;99.90
21298;DHT22;10808;48.010;11.326;2022-11-20T04:26:19;6.40;99.90
21298;DHT22;10808;48.010;11.326;2022-11-20T04:28:46;6.30;99.90
21298;DHT22;10808;48.010;11.326;2022-11-20T04:31:21;6.30;99.90
21298;DHT22;10808;48.010;11.326;2022-11-20T04:33:47;6.30;99.90
21298;DHT22;10808;48.010;11.326;2022-11-20T04:36:17;6.30;99.90
21298;DHT22;10808;48.010;11.326;2022-11-20T04:38:43;6.30;99.90
21298;DHT22;10808;48.010;11.326;2022-11-20T04:41:17;6.30;99.90
21298;DHT22;10808;48.010;11.326;2022-11-20T04:43:51;6.30;99.90
21298;DHT22;10808;48.010;11.326;2022-11-20T04:46:19;6.30;99.90
21298;DHT22;10808;48.010;11.326;2022-11-20T04:48:46;6.30;99.90
21298;DHT22;10808;48.010;11.326;2022-11-20T04:51:13;6.40;99.90
21298;DHT22;10808;48.010;11.326;2022-11-20T04:53:40;6.30;99.90
21298;DHT22;10808;48.010;11.326;2022-11-20T04:56:08;6.40;99.90
21298;DHT22;10808;48.010;11.326;2022-11-20T04:58:36;6.30;99.90
21298;DHT22;10808;48.010;11.326;2022-11-20T05:01:09;6.40;99.90
21298;DHT22;10808;48.010;11.326;2022-11-20T05:03:35;6.30;99.90
21298;DHT22;10808;48.010;11.326;2022-11-20T05:06:03;6.40;99.90
21298;DHT22;10808;48.010;11.326;2022-11-20T05:08:30;6.40;99.90
21298;DHT22;10808;48.010;11.326;2022-11-20T05:11:08;6.40;99.90
21298;DHT22;10808;48.010;11.326;2022-11-20T05:13:34;6.40;99.90
21298;DHT22;10808;48.010;11.326;2022-11-20T05:16:03;6.40;99.90
21298;DHT22;10808;48.010;11.326;2022-11-20T05:18:29;6.40;99.90
21298;DHT22;10808;48.010;11.326;2022-11-20T05:20:56;6.30;99.90
21298;DHT22;10808;48.010;11.326;2022-11-20T05:23:23;6.30;99.90
21298;DHT22;10808;48.010;11.326;2022-11-20T05:25:54;6.30;99.90
21298;DHT22;10808;48.010;11.326;2022-11-20T05:28:21;6.30;99.90
21298;DHT22;10808;48.010;11.326;2022-11-20T05:30:47;6.30;99.90
21298;DHT22;10808;48.010;11.326;2022-11-20T05:33:14;6.20;99.90
21298;DHT22;10808;48.010;11.326;2022-11-20T05:35:40;6.30;99.90
21298;DHT22;10808;48.010;11.326;2022-11-20T05:38:06;6.20;99.90
21298;DHT22;10808;48.010;11.326;2022-11-20T05:40:32;6.20;99.90
21298;DHT22;10808;48.010;11.326;2022-11-20T05:42:59;6.20;99.90
21298;DHT22;10808;48.010;11.326;2022-11-20T05:45:26;6.20;99.90
21298;DHT22;10808;48.010;11.326;2022-11-20T05:47:52;6.10;99.90
21298;DHT22;10808;48.010;11.326;2022-11-20T05:50:18;6.20;99.90
21298;DHT22;10808;48.010;11.326;2022-11-20T05:52:45;6.20;99.90
21298;DHT22;10808;48.010;11.326;2022-11-20T05:55:12;6.20;99.90
21298;DHT22;10808;48.010;11.326;2022-11-20T05:57:38;6.20;99.90
21298;DHT22;10808;48.010;11.326;2022-11-20T06:00:04;6.20;99.90
21298;DHT22;10808;48.010;11.326;2022-11-20T06:02:30;6.20;99.90
21298;DHT22;10808;48.010;11.326;2022-11-20T06:04:59;6.10;99.90
21298;DHT22;10808;48.010;11.326;2022-11-20T06:07:26;6.10;99.90
21298;DHT22;10808;48.010;11.326;2022-11-20T06:09:52;6.20;99.90
21298;DHT22;10808;48.010;11.326;2022-11-20T06:12:18;6.20;99.90
21298;DHT22;10808;48.010;11.326;2022-11-20T06:14:44;6.10;99.90
21298;DHT22;10808;48.010;11.326;2022-11-20T06:17:11;6.10;99.90
21298;DHT22;10808;48.010;11.326;2022-11-20T06:19:37;6.10;99.90
21298;DHT22;10808;48.010;11.326;2022-11-20T06:22:03;6.00;99.90
21298;DHT22;10808;48.010;11.326;2022-11-20T06:24:29;6.00;99.90
21298;DHT22;10808;48.010;11.326;2022-11-20T06:26:55;6.00;99.90
21298;DHT22;10808;48.010;11.326;2022-11-20T06:29:21;6.00;99.90
21298;DHT22;10808;48.010;11.326;2022-11-20T06:31:47;6.00;99.90
21298;DHT22;10808;48.010;11.326;2022-11-20T06:34:13;6.00;99.90
21298;DHT22;10808;48.010;11.326;2022-11-20T06:36:39;6.00;99.90
21298;DHT22;10808;48.010;11.326;2022-11-20T06:39:05;5.90;99.90
21298;DHT22;10808;48.010;11.326;2022-11-20T06:41:31;5.90;99.90
21298;DHT22;10808;48.010;11.326;2022-11-20T06:43:58;5.90;99.90
21298;DHT22;10808;48.010;11.326;2022-11-20T06:46:24;6.00;99.90
21298;DHT22;10808;48.010;11.326;2022-11-20T06:48:50;5.90;99.90
21298;DHT22;10808;48.010;11.326;2022-11-20T06:51:17;5.90;99.90
21298;DHT22;10808;48.010;11.326;2022-11-20T06:53:43;5.90;99.90
21298;DHT22;10808;48.010;11.326;2022-11-20T06:56:09;5.90;99.90
21298;DHT22;10808;48.010;11.326;2022-11-20T06:58:36;5.90;99.90
21298;DHT22;10808;48.010;11.326;2022-11-20T07:01:05;6.00;99.90
21298;DHT22;10808;48.010;11.326;2022-11-20T07:03:32;5.90;99.90
21298;DHT22;10808;48.010;11.326;2022-11-20T07:06:00;5.90;99.90
21298;DHT22;10808;48.010;11.326;2022-11-20T07:08:26;5.90;99.90
21298;DHT22;10808;48.010;11.326;2022-11-20T07:10:56;5.90;99.90
21298;DHT22;10808;48.010;11.326;2022-11-20T07:13:23;5.80;99.90
21298;DHT22;10808;48.010;11.326;2022-11-20T07:15:49;5.80;99.90
21298;DHT22;10808;48.010;11.326;2022-11-20T07:18:15;5.80;99.90
21298;DHT22;10808;48.010;11.326;2022-11-20T07:20:41;5.80;99.90
21298;DHT22;10808;48.010;11.326;2022-11-20T07:23:10;5.80;99.90
21298;DHT22;10808;48.010;11.326;2022-11-20T07:25:36;5.80;99.90
21298;DHT22;10808;48.010;11.326;2022-11-20T07:28:02;5.80;99.90
21298;DHT22;10808;48.010;11.326;2022-11-20T07:30:28;5.80;99.90
21298;DHT22;10808;48.010;11.326;2022-11-20T07:32:55;5.90;99.90
21298;DHT22;10808;48.010;11.326;2022-11-20T07:35:22;5.90;99.90
21298;DHT22;10808;48.010;11.326;2022-11-20T07:37:49;5.90;99.90
21298;DHT22;10808;48.010;11.326;2022-11-20T07:40:15;6.00;99.90
21298;DHT22;10808;48.010;11.326;2022-11-20T07:42:52;6.00;99.90
21298;DHT22;10808;48.010;11.326;2022-11-20T07:45:20;6.00;99.90
21298;DHT22;10808;48.010;11.326;2022-11-20T07:47:47;6.00;99.90
21298;DHT22;10808;48.010;11.326;2022-11-20T07:50:14;6.00;99.90
21298;DHT22;10808;48.010;11.326;2022-11-20T07:52:40;6.10;99.90
21298;DHT22;10808;48.010;11.326;2022-11-20T07:55:07;6.10;99.90
21298;DHT22;10808;48.010;11.326;2022-11-20T07:57:34;6.10;99.90
21298;DHT22;10808;48.010;11.326;2022-11-20T08:00:00;6.10;99.90
21298;DHT22;10808;48.010;11.326;2022-11-20T08:02:26;6.20;99.90
21298;DHT22;10808;48.010;11.326;2022-11-20T08:04:52;6.20;99.90
21298;DHT22;10808;48.010;11.326;2022-11-20T08:07:18;6.20;99.90
21298;DHT22;10808;48.010;11.326;2022-11-20T08:09:44;6.20;99.90
21298;DHT22;10808;48.010;11.326;2022-11-20T08:12:18;6.20;99.90
21298;DHT22;10808;48.010;11.326;2022-11-20T08:15:04;6.20;99.90
21298;DHT22;10808;48.010;11.326;2022-11-20T08:17:31;6.30;99.90
21298;DHT22;10808;48.010;11.326;2022-11-20T08:19:57;6.30;99.90
21298;DHT22;10808;48.010;11.326;2022-11-20T08:22:23;6.30;99.90
21298;DHT22;10808;48.010;11.326;2022-11-20T08:24:50;6.40;99.90
21298;DHT22;10808;48.010;11.326;2022-11-20T08:27:16;6.40;99.90
21298;DHT22;10808;48.010;11.326;2022-11-20T08:29:42;6.40;99.90
21298;DHT22;10808;48.010;11.326;2022-11-20T08:32:08;6.50;99.90
21298;DHT22;10808;48.010;11.326;2022-11-20T08:34:35;6.50;99.90
21298;DHT22;10808;48.010;11.326;2022-11-20T08:37:03;6.60;99.90
21298;DHT22;10808;48.010;11.326;2022-11-20T08:39:29;6.60;99.90
21298;DHT22;10808;48.010;11.326;2022-11-20T08:41:55;6.60;99.90
21298;DHT22;10808;48.010;11.326;2022-11-20T08:44:21;6.70;99.90
21298;DHT22;10808;48.010;11.326;2022-11-20T08:46:47;6.70;99.90
21298;DHT22;10808;48.010;11.326;2022-11-20T08:49:14;6.70;99.90
21298;DHT22;10808;48.010;11.326;2022-11-20T08:51:41;6.80;99.90
21298;DHT22;10808;48.010;11.326;2022-11-20T08:54:08;6.80;99.90
21298;DHT22;10808;48.010;11.326;2022-11-20T08:56:35;6.80;99.90
21298;DHT22;10808;48.010;11.326;2022-11-20T08:59:01;6.80;99.90
21298;DHT22;10808;48.010;11.326;2022-11-20T09:01:28;6.90;99.90
21298;DHT22;10808;48.010;11.326;2022-11-20T09:03:56;6.90;99.90
21298;DHT22;10808;48.010;11.326;2022-11-20T09:06:22;7.00;99.90
21298;DHT22;10808;48.010;11.326;2022-11-20T09:08:52;7.00;99.90
21298;DHT22;10808;48.010;11.326;2022-11-20T09:11:19;7.10;99.90
21298;DHT22;10808;48.010;11.326;2022-11-20T09:13:45;7.10;99.90
21298;DHT22;10808;48.010;11.326;2022-11-20T09:16:11;7.10;99.90
21298;DHT22;10808;48.010;11.326;2022-11-20T09:18:37;7.10;99.90
21298;DHT22;10808;48.010;11.326;2022-11-20T09:21:06;7.10;99.90
21298;DHT22;10808;48.010;11.326;2022-11-20T09:23:34;7.20;99.90
21298;DHT22;10808;48.010;11.326;2022-11-20T09:26:14;7.20;99.90
21298;DHT22;10808;48.010;11.326;2022-11-20T09:28:40;7.30;99.90
21298;DHT22;10808;48.010;11.326;2022-11-20T09:31:07;7.30;99.90
21298;DHT22;10808;48.010;11.326;2022-11-20T09:33:35;7.40;99.90
21298;DHT22;10808;48.010;11.326;2022-11-20T09:36:01;7.40;99.90
21298;DHT22;10808;48.010;11.326;2022-11-20T09:38:28;7.40;99.90
21298;DHT22;10808;48.010;11.326;2022-11-20T09:41:05;7.40;99.90
21298;DHT22;10808;48.010;11.326;2022-11-20T09:46:28;7.40;99.90
21298;DHT22;10808;48.010;11.326;2022-11-20T09:54:31;7.60;99.90
21298;DHT22;10808;48.010;11.326;2022-11-20T09:57:02;7.70;99.90
21298;DHT22;10808;48.010;11.326;2022-11-20T10:05:09;8.10;99.90
21298;DHT22;10808;48.010;11.326;2022-11-20T10:10:20;8.20;99.90
21298;DHT22;10808;48.010;11.326;2022-11-20T10:13:05;8.20;99.90
21298;DHT22;10808;48.010;11.326;2022-11-20T10:18:47;8.40;99.90
21298;DHT22;10808;48.010;11.326;2022-11-20T10:27:06;8.80;99.90
21298;DHT22;10808;48.010;11.326;2022-11-20T10:29:38;8.90;99.90
21298;DHT22;10808;48.010;11.326;2022-11-20T10:32:18;9.00;99.90
21298;DHT22;10808;48.010;11.326;2022-11-20T10:34:57;9.10;99.90
21298;DHT22;10808;48.010;11.326;2022-11-20T10:37:26;9.10;99.90
21298;DHT22;10808;48.010;11.326;2022-11-20T10:40:23;9.10;99.90
21298;DHT22;10808;48.010;11.326;2022-11-20T10:42:57;9.10;99.90
21298;DHT22;10808;48.010;11.326;2022-11-20T10:50:36;9.20;99.90
21298;DHT22;10808;48.010;11.326;2022-11-20T10:53:22;9.20;99.90
21298;DHT22;10808;48.010;11.326;2022-11-20T10:56:02;9.20;99.90
21298;DHT22;10808;48.010;11.326;2022-11-20T10:58:49;9.20;99.90
21298;DHT22;10808;48.010;11.326;2022-11-20T11:01:20;9.10;99.90
21298;DHT22;10808;48.010;11.326;2022-11-20T11:03:53;9.10;99.90
21298;DHT22;10808;48.010;11.326;2022-11-20T11:06:34;9.00;99.90
21298;DHT22;10808;48.010;11.326;2022-11-20T11:09:13;9.00;99.90
21298;DHT22;10808;48.010;11.326;2022-11-20T11:11:42;9.00;99.90
21298;DHT22;10808;48.010;11.326;2022-11-20T11:14:13;8.90;99.90
21298;DHT22;10808;48.010;11.326;2022-11-20T11:16:51;8.90;99.90
21298;DHT22;10808;48.010;11.326;2022-11-20T11:19:18;8.90;99.90
21298;DHT22;10808;48.010;11.326;2022-11-20T11:21:57;8.90;99.90
21298;DHT22;10808;48.010;11.326;2022-11-20T11:24:25;9.00;99.90
21298;DHT22;10808;48.010;11.326;2022-11-20T11:27:00;9.00;99.90
21298;DHT22;10808;48.010;11.326;2022-11-20T11:29:35;9.00;99.90
21298;DHT22;10808;48.010;11.326;2022-11-20T11:32:11;8.90;99.90
21298;DHT22;10808;48.010;11.326;2022-11-20T11:34:38;8.90;99.90
21298;DHT22;10808;48.010;11.326;2022-11-20T11:37:10;8.90;99.90
21298;DHT22;10808;48.010;11.326;2022-11-20T11:39:41;8.90;99.90
21298;DHT22;10808;48.010;11.326;2022-11-20T11:42:12;8.90;99.90
21298;DHT22;10808;48.010;11.326;2022-11-20T11:44:46;9.00;99.90
21298;DHT22;10808;48.010;11.326;2022-11-20T11:52:53;9.10;99.90
21298;DHT22;10808;48.010;11.326;2022-11-20T11:55:30;9.10;99.90
21298;DHT22;10808;48.010;11.326;2022-11-20T12:00:58;9.00;99.90
21298;DHT22;10808;48.010;11.326;2022-11-20T12:03:39;9.00;99.90
21298;DHT22;10808;48.010;11.326;2022-11-20T12:06:14;9.00;99.90
21298;DHT22;10808;48.010;11.326;2022-11-20T12:08:59;9.00;99.90
21298;DHT22;10808;48.010;11.326;2022-11-20T12:11:37;9.00;99.90
21298;DHT22;10808;48.010;11.326;2022-11-20T12:14:16;8.90;99.90
21298;DHT22;10808;48.010;11.326;2022-11-20T12:16:45;8.90;99.90
21298;DHT22;10808;48.010;11.326;2022-11-20T12:19:13;8.80;99.90
21298;DHT22;10808;48.010;11.326;2022-11-20T12:24:18;8.70;99.90
21298;DHT22;10808;48.010;11.326;2022-11-20T12:27:25;8.60;99.90
21298;DHT22;10808;48.010;11.326;2022-11-20T12:30:03;8.50;99.90
21298;DHT22;10808;48.010;11.326;2022-11-20T12:41:35;8.20;99.90
21298;DHT22;10808;48.010;11.326;2022-11-20T12:44:38;8.10;99.90
21298;DHT22;10808;48.010;11.326;2022-11-20T12:52:47;7.80;99.90
21298;DHT22;10808;48.010;11.326;2022-11-20T12:58:10;7.70;99.90
21298;DHT22;10808;48.010;11.326;2022-11-20T13:00:43;7.70;99.90
21298;DHT22;10808;48.010;11.326;2022-11-20T13:08:28;7.70;99.90
21298;DHT22;10808;48.010;11.326;2022-11-20T13:10:58;7.70;99.90
21298;DHT22;10808;48.010;11.326;2022-11-20T13:16:10;7.70;99.90
21298;DHT22;10808;48.010;11.326;2022-11-20T13:18:40;7.70;99.90
21298;DHT22;10808;48.010;11.326;2022-11-20T13:21:15;7.70;99.90
21298;DHT22;10808;48.010;11.326;2022-11-20T13:23:41;7.70;99.90
21298;DHT22;10808;48.010;11.326;2022-11-20T13:26:20;7.70;99.90
21298;DHT22;10808;48.010;11.326;2022-11-20T13:28:58;7.70;99.90
21298;DHT22;10808;48.010;11.326;2022-11-20T13:31:33;7.60;99.90
21298;DHT22;10808;48.010;11.326;2022-11-20T13:34:03;7.60;99.90
21298;DHT22;10808;48.010;11.326;2022-11-20T13:36:30;7.60;99.90
21298;DHT22;10808;48.010;11.326;2022-11-20T13:38:58;7.50;99.90
21298;DHT22;10808;48.010;11.326;2022-11-20T13:43:58;7.60;99.90
21298;DHT22;10808;48.010;11.326;2022-11-20T13:46:36;7.60;99.90
21298;DHT22;10808;48.010;11.326;2022-11-20T13:49:08;7.60;99.90
21298;DHT22;10808;48.010;11.326;2022-11-20T13:51:42;7.60;99.90
21298;DHT22;10808;48.010;11.326;2022-11-20T13:54:50;7.70;99.90
21298;DHT22;10808;48.010;11.326;2022-11-20T14:00:22;7.70;99.90
21298;DHT22;10808;48.010;11.326;2022-11-20T14:05:59;7.70;99.90
21298;DHT22;10808;48.010;11.326;2022-11-20T14:08:48;7.70;99.90
21298;DHT22;10808;48.010;11.326;2022-11-20T14:11:20;7.80;99.90
21298;DHT22;10808;48.010;11.326;2022-11-20T14:14:13;7.80;99.90
21298;DHT22;10808;48.010;11.326;2022-11-20T14:16:41;7.80;99.90
21298;DHT22;10808;48.010;11.326;2022-11-20T14:21:53;7.70;99.90
21298;DHT22;10808;48.010;11.326;2022-11-20T14:24:22;7.60;99.90
21298;DHT22;10808;48.010;11.326;2022-11-20T14:26:49;7.50;99.90
21298;DHT22;10808;48.010;11.326;2022-11-20T14:29:18;7.50;99.90
21298;DHT22;10808;48.010;11.326;2022-11-20T14:31:46;7.50;99.90
21298;DHT22;10808;48.010;11.326;2022-11-20T14:34:18;7.40;99.90
21298;DHT22;10808;48.010;11.326;2022-11-20T14:36:44;7.40;99.90
21298;DHT22;10808;48.010;11.326;2022-11-20T14:39:21;7.30;99.90
21298;DHT22;10808;48.010;11.326;2022-11-20T14:41:51;7.30;99.90
21298;DHT22;10808;48.010;11.326;2022-11-20T14:44:21;7.30;99.90
21298;DHT22;10808;48.010;11.326;2022-11-20T14:46:48;7.20;99.90
21298;DHT22;10808;48.010;11.326;2022-11-20T14:49:16;7.20;99.90
21298;DHT22;10808;48.010;11.326;2022-11-20T14:51:42;7.20;99.90
21298;DHT22;10808;48.010;11.326;2022-11-20T14:54:09;7.20;99.90
21298;DHT22;10808;48.010;11.326;2022-11-20T14:56:35;7.20;99.90
21298;DHT22;10808;48.010;11.326;2022-11-20T14:59:01;7.20;99.90
21298;DHT22;10808;48.010;11.326;2022-11-20T15:01:30;7.20;99.90
21298;DHT22;10808;48.010;11.326;2022-11-20T15:04:08;7.10;99.90
21298;DHT22;10808;48.010;11.326;2022-11-20T15:06:35;7.20;99.90
21298;DHT22;10808;48.010;11.326;2022-11-20T15:09:04;7.20;99.90
21298;DHT22;10808;48.010;11.326;2022-11-20T15:11:33;7.20;99.90
21298;DHT22;10808;48.010;11.326;2022-11-20T15:14:05;7.20;99.90
21298;DHT22;10808;48.010;11.326;2022-11-20T15:16:32;7.10;99.90
21298;DHT22;10808;48.010;11.326;2022-11-20T15:18:59;7.20;99.90
21298;DHT22;10808;48.010;11.326;2022-11-20T15:21:26;7.20;99.90
21298;DHT22;10808;48.010;11.326;2022-11-20T15:23:52;7.20;99.90
21298;DHT22;10808;48.010;11.326;2022-11-20T15:26:26;7.20;99.90
21298;DHT22;10808;48.010;11.326;2022-11-20T15:28:54;7.20;99.90
21298;DHT22;10808;48.010;11.326;2022-11-20T15:31:22;7.20;99.90
21298;DHT22;10808;48.010;11.326;2022-11-20T15:33:49;7.20;99.90
21298;DHT22;10808;48.010;11.326;2022-11-20T15:36:15;7.10;99.90
21298;DHT22;10808;48.010;11.326;2022-11-20T15:38:41;7.10;99.90
21298;DHT22;10808;48.010;11.326;2022-11-20T15:41:08;7.10;99.90
21298;DHT22;10808;48.010;11.326;2022-11-20T15:43:50;7.10;99.90
21298;DHT22;10808;48.010;11.326;2022-11-20T15:46:22;7.00;99.90
21298;DHT22;10808;48.010;11.326;2022-11-20T15:48:52;7.00;99.90
21298;DHT22;10808;48.010;11.326;2022-11-20T15:51:29;7.00;99.90
21298;DHT22;10808;48.010;11.326;2022-11-20T15:53:56;6.90;99.90
21298;DHT22;10808;48.010;11.326;2022-11-20T15:56:22;6.90;99.90
21298;DHT22;10808;48.010;11.326;2022-11-20T15:58:49;6.90;99.90
21298;DHT22;10808;48.010;11.326;2022-11-20T16:01:17;6.90;99.90
21298;DHT22;10808;48.010;11.326;2022-11-20T16:03:44;6.80;99.90
21298;DHT22;10808;48.010;11.326;2022-11-20T16:06:10;6.80;99.90
21298;DHT22;10808;48.010;11.326;2022-11-20T16:08:36;6.70;99.90
21298;DHT22;10808;48.010;11.326;2022-11-20T16:11:03;6.70;99.90
21298;DHT22;10808;48.010;11.326;2022-11-20T16:13:31;6.70;99.90
21298;DHT22;10808;48.010;11.326;2022-11-20T16:16:21;6.70;99.90
21298;DHT22;10808;48.010;11.326;2022-11-20T16:18:48;6.60;99.90
21298;DHT22;10808;48.010;11.326;2022-11-20T16:21:14;6.60;99.90
21298;DHT22;10808;48.010;11.326;2022-11-20T16:23:41;6.60;99.90
21298;DHT22;10808;48.010;11.326;2022-11-20T16:26:16;6.60;99.90
21298;DHT22;10808;48.010;11.326;2022-11-20T16:28:43;6.60;99.90
21298;DHT22;10808;48.010;11.326;2022-11-20T16:31:14;6.50;99.90
21298;DHT22;10808;48.010;11.326;2022-11-20T16:33:41;6.50;99.90
21298;DHT22;10808;48.010;11.326;2022-11-20T16:36:09;6.50;99.90
21298;DHT22;10808;48.010;11.326;2022-11-20T16:38:36;6.40;99.90
21298;DHT22;10808;48.010;11.326;2022-11-20T16:41:02;6.40;99.90
21298;DHT22;10808;48.010;11.326;2022-11-20T16:43:28;6.40;99.90
21298;DHT22;10808;48.010;11.326;2022-11-20T16:45:54;6.40;99.90
21298;DHT22;10808;48.010;11.326;2022-11-20T16:48:20;6.40;99.90
21298;DHT22;10808;48.010;11.326;2022-11-20T16:50:52;6.40;99.90
21298;DHT22;10808;48.010;11.326;2022-11-20T16:53:20;6.40;99.90
21298;DHT22;10808;48.010;11.326;2022-11-20T16:55:46;6.40;99.90
21298;DHT22;10808;48.010;11.326;2022-11-20T16:58:13;6.40;99.90
21298;DHT22;10808;48.010;11.326;2022-11-20T17:00:40;6.30;99.90
21298;DHT22;10808;48.010;11.326;2022-11-20T17:03:06;6.30;99.90
21298;DHT22;10808;48.010;11.326;2022-11-20T17:05:34;6.30;99.90